createdAt,value
2023-01-19T00:00:27.746Z,99604.78
2023-01-19T00:02:54.920Z,99598.81
2023-01-19T00:05:21.579Z,99591.84
2023-01-19T00:07:48.022Z,99597.81
2023-01-19T00:10:14.436Z,99593.63
2023-01-19T00:12:40.860Z,99594.50
2023-01-19T00:15:08.032Z,99596.16
2023-01-19T00:17:34.438Z,99603.00
2023-01-19T00:20:00.850Z,99608.00
2023-01-19T00:22:27.261Z,99618.97
2023-01-19T00:24:53.683Z,99614.44
2023-01-19T00:27:20.100Z,99609.25
2023-01-19T00:29:46.577Z,99609.16
2023-01-19T00:32:13.002Z,99607.97
2023-01-19T00:34:42.596Z,99611.06
2023-01-19T00:37:09.618Z,99610.00
2023-01-19T00:39:36.030Z,99608.22
2023-01-19T00:42:20.869Z,99603.16
2023-01-19T00:44:47.284Z,99608.44
2023-01-19T00:47:13.678Z,99610.97
2023-01-19T00:49:40.137Z,99611.97
2023-01-19T00:52:06.557Z,99608.75
2023-01-19T00:54:33.000Z,99602.09
2023-01-19T00:56:59.445Z,99608.16
2023-01-19T00:59:25.868Z,99609.16
2023-01-19T01:01:52.415Z,99608.47
2023-01-19T01:04:18.973Z,99616.97
2023-01-19T01:06:45.428Z,99623.81
2023-01-19T01:09:12.053Z,99617.97
2023-01-19T01:11:39.940Z,99612.09
2023-01-19T01:14:06.439Z,99620.72
2023-01-19T01:16:32.968Z,99616.59
2023-01-19T01:18:59.523Z,99628.53
2023-01-19T01:21:25.973Z,99620.13
2023-01-19T01:23:52.385Z,99626.00
2023-01-19T01:26:18.794Z,99619.16
2023-01-19T01:28:45.229Z,99621.59
2023-01-19T01:31:11.684Z,99619.84
2023-01-19T01:33:40.653Z,99618.19
2023-01-19T01:36:08.928Z,99618.06
2023-01-19T01:38:35.361Z,99615.63
2023-01-19T01:41:01.789Z,99619.16
2023-01-19T01:43:42.695Z,99620.81
2023-01-19T01:46:09.330Z,99621.59
2023-01-19T01:48:36.509Z,99622.47
2023-01-19T01:51:24.749Z,99622.56
2023-01-19T01:54:12.083Z,99623.34
2023-01-19T01:56:44.656Z,99616.59
2023-01-19T01:59:18.040Z,99630.22
2023-01-19T02:02:03.124Z,99626.00
2023-01-19T02:04:30.123Z,99621.69
2023-01-19T02:07:15.133Z,99626.00
2023-01-19T02:10:00.142Z,99631.97
2023-01-19T02:12:45.918Z,99629.53
2023-01-19T02:15:17.725Z,99636.97
2023-01-19T02:17:44.327Z,99641.25
2023-01-19T02:20:11.255Z,99636.97
2023-01-19T02:22:45.584Z,99628.44
2023-01-19T02:25:12.115Z,99629.44
2023-01-19T02:27:39.496Z,99622.78
2023-01-19T02:30:07.057Z,99629.53
2023-01-19T02:32:33.595Z,99627.94
2023-01-19T02:35:00.063Z,99633.03
2023-01-19T02:37:26.647Z,99631.47
2023-01-19T02:39:56.024Z,99635.91
2023-01-19T02:42:44.452Z,99631.69
2023-01-19T02:45:12.674Z,99630.03
2023-01-19T02:47:49.782Z,99623.28
2023-01-19T02:50:41.790Z,99634.44
2023-01-19T02:53:45.973Z,99625.94
2023-01-19T02:56:36.294Z,99626.81
2023-01-19T02:59:37.132Z,99622.59
2023-01-19T03:02:23.991Z,99616.53
2023-01-19T03:05:26.119Z,99615.66
2023-01-19T03:08:15.704Z,99612.22
2023-01-19T03:10:54.489Z,99606.44
2023-01-19T03:13:42.707Z,99607.31
2023-01-19T03:16:12.181Z,99624.25
2023-01-19T03:18:42.701Z,99620.84
2023-01-19T03:21:10.323Z,99613.31
2023-01-19T03:23:38.816Z,99618.47
2023-01-19T03:26:05.984Z,99618.47
2023-01-19T03:28:33.573Z,99618.69
2023-01-19T03:31:05.433Z,99617.09
2023-01-19T03:33:33.025Z,99620.75
2023-01-19T03:36:10.489Z,99623.31
2023-01-19T03:38:38.071Z,99616.63
2023-01-19T03:41:08.223Z,99620.94
2023-01-19T03:43:35.607Z,99622.72
2023-01-19T03:46:04.104Z,99616.03
2023-01-19T03:48:32.371Z,99614.47
2023-01-19T03:51:03.620Z,99611.16
2023-01-19T03:53:30.022Z,99604.38
2023-01-19T03:55:57.003Z,99612.03
2023-01-19T03:58:23.487Z,99609.56
2023-01-19T04:00:50.012Z,99600.19
2023-01-19T04:03:18.150Z,99602.63
2023-01-19T04:05:44.608Z,99603.50
2023-01-19T04:08:11.884Z,99605.97
2023-01-19T04:10:38.848Z,99610.25
2023-01-19T04:13:05.635Z,99609.28
2023-01-19T04:15:32.624Z,99618.59
2023-01-19T04:18:00.588Z,99612.72
2023-01-19T04:20:28.172Z,99616.03
2023-01-19T04:22:56.068Z,99612.72
2023-01-19T04:25:22.478Z,99608.50
2023-01-19T04:27:52.275Z,99628.00
2023-01-19T04:30:19.050Z,99623.78
2023-01-19T04:32:48.484Z,99620.34
2023-01-19T04:35:14.980Z,99621.13
2023-01-19T04:37:41.429Z,99619.38
2023-01-19T04:40:08.524Z,99619.38
2023-01-19T04:42:34.964Z,99613.41
2023-01-19T04:45:01.358Z,99621.03
2023-01-19T04:47:27.775Z,99614.19
2023-01-19T04:49:54.223Z,99607.25
2023-01-19T04:52:20.644Z,99599.59
2023-01-19T04:54:47.665Z,99598.03
2023-01-19T04:57:14.107Z,99598.03
2023-01-19T04:59:40.556Z,99604.69
2023-01-19T05:02:07.182Z,99596.19
2023-01-19T05:04:33.721Z,99604.78
2023-01-19T05:07:00.114Z,99615.06
2023-01-19T05:09:27.277Z,99611.75
2023-01-19T05:11:53.764Z,99622.91
2023-01-19T05:14:20.259Z,99627.19
2023-01-19T05:16:46.677Z,99628.97
2023-01-19T05:19:13.133Z,99629.06
2023-01-19T05:21:39.562Z,99634.16
2023-01-19T05:24:06.302Z,99626.41
2023-01-19T05:26:32.815Z,99626.63
2023-01-19T05:28:59.221Z,99625.06
2023-01-19T05:31:25.782Z,99619.09
2023-01-19T05:33:52.249Z,99629.28
2023-01-19T05:36:18.651Z,99634.47
2023-01-19T05:38:45.075Z,99641.31
2023-01-19T05:41:11.468Z,99633.78
2023-01-19T05:43:37.909Z,99635.44
2023-01-19T05:46:05.347Z,99632.03
2023-01-19T05:48:31.791Z,99630.34
2023-01-19T05:50:59.163Z,99633.78
2023-01-19T05:53:25.848Z,99630.34
2023-01-19T05:55:52.323Z,99630.16
2023-01-19T05:58:18.726Z,99626.13
2023-01-19T06:00:45.215Z,99632.09
2023-01-19T06:03:11.854Z,99633.88
2023-01-19T06:05:39.439Z,99628.78
2023-01-19T06:08:06.030Z,99631.41
2023-01-19T06:10:32.448Z,99632.31
2023-01-19T06:12:59.236Z,99634.06
2023-01-19T06:15:25.871Z,99636.81
2023-01-19T06:17:52.274Z,99632.91
2023-01-19T06:20:18.674Z,99642.38
2023-01-19T06:22:45.069Z,99642.38
2023-01-19T06:25:11.934Z,99640.81
2023-01-19T06:27:39.787Z,99636.59
2023-01-19T06:30:06.782Z,99646.88
2023-01-19T06:32:33.205Z,99657.06
2023-01-19T06:34:59.610Z,99656.28
2023-01-19T06:37:27.256Z,99662.38
2023-01-19T06:39:53.668Z,99667.38
2023-01-19T06:42:20.096Z,99670.13
2023-01-19T06:44:47.994Z,99665.13
2023-01-19T06:47:16.375Z,99670.31
2023-01-19T06:49:43.271Z,99679.72
2023-01-19T06:52:11.440Z,99678.72
2023-01-19T06:54:37.840Z,99673.44
2023-01-19T06:57:04.459Z,99680.22
2023-01-19T06:59:31.704Z,99687.75
2023-01-19T07:01:59.012Z,99692.72
2023-01-19T07:04:25.597Z,99688.41
2023-01-19T07:06:51.995Z,99695.28
2023-01-19T07:09:20.335Z,99690.31
2023-01-19T07:11:47.268Z,99692.84
2023-01-19T07:14:14.011Z,99687.75
2023-01-19T07:16:40.534Z,99691.28
2023-01-19T07:19:10.605Z,99689.53
2023-01-19T07:21:37.133Z,99693.72
2023-01-19T07:24:03.629Z,99696.16
2023-01-19T07:26:30.826Z,99708.31
2023-01-19T07:28:57.240Z,99704.22
2023-01-19T07:31:23.747Z,99709.59
2023-01-19T07:33:50.183Z,99715.56
2023-01-19T07:36:16.579Z,99718.19
2023-01-19T07:38:43.015Z,99712.53
2023-01-19T07:41:10.224Z,99716.84
2023-01-19T07:43:36.670Z,99720.47
2023-01-19T07:46:05.514Z,99719.69
2023-01-19T07:48:32.016Z,99728.28
2023-01-19T07:51:05.359Z,99726.72
2023-01-19T07:53:32.287Z,99726.81
2023-01-19T07:55:58.752Z,99732.22
2023-01-19T07:58:26.397Z,99736.81
2023-01-19T08:00:53.323Z,99727.59
2023-01-19T08:03:20.226Z,99729.59
2023-01-19T08:05:50.307Z,99737.50
2023-01-19T08:08:16.740Z,99731.63
2023-01-19T08:10:43.135Z,99734.34
2023-01-19T08:13:09.579Z,99730.44
2023-01-19T08:15:35.984Z,99729.06
2023-01-19T08:18:05.644Z,99736.09
2023-01-19T08:20:33.169Z,99733.78
2023-01-19T08:23:00.253Z,99729.75
2023-01-19T08:25:32.399Z,99736.69
2023-01-19T08:27:58.934Z,99731.19
2023-01-19T08:30:26.784Z,99729.72
2023-01-19T08:32:54.591Z,99736.66
2023-01-19T08:35:22.062Z,99730.25
2023-01-19T08:37:48.470Z,99734.97
2023-01-19T08:40:14.975Z,99731.00
2023-01-19T08:42:41.396Z,99727.19
2023-01-19T08:45:09.237Z,99731.75
2023-01-19T08:47:35.708Z,99730.38
2023-01-19T08:50:02.251Z,99733.28
2023-01-19T08:52:29.334Z,99738.88
2023-01-19T08:54:55.844Z,99738.44
2023-01-19T08:57:22.259Z,99743.13
2023-01-19T08:59:48.707Z,99743.47
2023-01-19T09:02:15.236Z,99746.41
2023-01-19T09:04:41.692Z,99741.72
2023-01-19T09:07:08.107Z,99734.53
2023-01-19T09:09:37.756Z,99742.63
2023-01-19T09:12:04.350Z,99740.34
2023-01-19T09:14:30.808Z,99743.31
2023-01-19T09:16:57.326Z,99735.91
2023-01-19T09:19:23.740Z,99728.53
2023-01-19T09:21:50.922Z,99729.03
2023-01-19T09:24:17.306Z,99719.88
2023-01-19T09:26:43.754Z,99723.72
2023-01-19T09:29:10.181Z,99723.72
2023-01-19T09:31:37.336Z,99724.09
2023-01-19T09:34:03.755Z,99719.13
2023-01-19T09:36:30.267Z,99719.22
2023-01-19T09:38:56.692Z,99720.63
2023-01-19T09:41:25.006Z,99719.25
2023-01-19T09:44:00.134Z,99729.84
2023-01-19T09:46:39.621Z,99724.91
2023-01-19T09:49:13.315Z,99729.44
2023-01-19T09:51:43.674Z,99731.13
2023-01-19T09:54:17.260Z,99728.75
2023-01-19T09:56:45.223Z,99723.25
2023-01-19T09:59:17.422Z,99732.75
2023-01-19T10:01:55.954Z,99724.56
2023-01-19T10:04:35.208Z,99736.69
2023-01-19T10:07:17.058Z,99735.91
2023-01-19T10:10:05.799Z,99733.34
2023-01-19T10:13:10.614Z,99733.41
2023-01-19T10:15:45.998Z,99732.16
2023-01-19T10:18:31.419Z,99733.34
2023-01-19T10:21:43.323Z,99719.59
2023-01-19T10:24:45.693Z,99723.13
2023-01-19T10:27:20.782Z,99724.06
2023-01-19T10:29:47.285Z,99721.44
2023-01-19T10:32:21.195Z,99713.06
2023-01-19T10:34:49.164Z,99716.41
2023-01-19T10:37:30.597Z,99709.84
2023-01-19T10:40:22.993Z,99717.53
2023-01-19T10:42:49.492Z,99729.44
2023-01-19T10:45:17.411Z,99722.72
2023-01-19T10:47:44.618Z,99729.84
2023-01-19T10:50:34.761Z,99736.03
2023-01-19T10:53:06.070Z,99734.56
2023-01-19T10:55:41.416Z,99733.84
2023-01-19T10:58:30.464Z,99740.25
2023-01-19T11:01:13.433Z,99731.91
2023-01-19T11:03:40.020Z,99720.31
2023-01-19T11:06:15.570Z,99729.50
2023-01-19T11:08:46.683Z,99722.88
2023-01-19T11:11:13.263Z,99725.44
2023-01-19T11:13:40.530Z,99727.09
2023-01-19T11:16:16.114Z,99726.53
2023-01-19T11:18:43.180Z,99723.91
2023-01-19T11:21:14.625Z,99727.91
2023-01-19T11:23:45.361Z,99717.66
2023-01-19T11:26:16.753Z,99729.59
2023-01-19T11:28:47.800Z,99727.31
2023-01-19T11:31:14.346Z,99711.16
2023-01-19T11:33:49.664Z,99719.56
2023-01-19T11:36:22.147Z,99717.22
2023-01-19T11:38:54.953Z,99722.41
2023-01-19T11:41:26.729Z,99719.38
2023-01-19T11:43:55.164Z,99715.47
2023-01-19T11:46:24.252Z,99710.69
2023-01-19T11:49:02.108Z,99713.47
2023-01-19T11:51:34.648Z,99716.28
2023-01-19T11:54:03.072Z,99712.09
2023-01-19T11:56:29.546Z,99713.91
2023-01-19T11:58:56.349Z,99705.34
2023-01-19T12:01:24.815Z,99709.66
2023-01-19T12:04:02.701Z,99706.56
2023-01-19T12:06:44.751Z,99708.38
2023-01-19T12:09:17.316Z,99703.94
2023-01-19T12:11:51.036Z,99698.88
2023-01-19T12:14:22.885Z,99706.50
2023-01-19T12:16:51.328Z,99709.94
2023-01-19T12:19:22.418Z,99702.19
2023-01-19T12:21:49.253Z,99706.50
2023-01-19T12:24:29.733Z,99706.69
2023-01-19T12:26:57.619Z,99712.59
2023-01-19T12:29:26.376Z,99711.00
2023-01-19T12:32:19.092Z,99709.25
2023-01-19T12:34:49.974Z,99706.44
2023-01-19T12:37:31.999Z,99703.13
2023-01-19T12:40:00.859Z,99708.19
2023-01-19T12:42:27.397Z,99713.25
2023-01-19T12:45:14.007Z,99711.56
2023-01-19T12:47:40.554Z,99703.25
2023-01-19T12:50:14.095Z,99704.00
2023-01-19T12:52:47.829Z,99703.25
2023-01-19T12:55:14.187Z,99701.75
2023-01-19T12:57:41.375Z,99709.72
2023-01-19T13:00:22.938Z,99711.41
2023-01-19T13:02:52.484Z,99712.97
2023-01-19T13:05:24.979Z,99718.22
2023-01-19T13:08:04.834Z,99720.72
2023-01-19T13:10:59.321Z,99723.22
2023-01-19T13:13:28.680Z,99723.88
2023-01-19T13:16:21.149Z,99733.41
2023-01-19T13:18:51.580Z,99728.88
2023-01-19T13:21:44.683Z,99728.88
2023-01-19T13:24:16.477Z,99740.72
2023-01-19T13:27:03.516Z,99736.19
2023-01-19T13:29:35.419Z,99735.97
2023-01-19T13:32:11.741Z,99737.72
2023-01-19T13:34:45.615Z,99741.16
2023-01-19T13:37:17.771Z,99736.84
2023-01-19T13:39:46.959Z,99741.16
2023-01-19T13:42:17.223Z,99741.81
2023-01-19T13:44:52.307Z,99743.81
2023-01-19T13:47:22.503Z,99741.31
2023-01-19T13:49:51.537Z,99749.00
2023-01-19T13:52:23.185Z,99763.50
2023-01-19T13:54:53.580Z,99763.56
2023-01-19T13:57:31.571Z,99760.13
2023-01-19T14:00:25.483Z,99756.84
2023-01-19T14:02:56.192Z,99763.78
2023-01-19T14:05:36.808Z,99764.59
2023-01-19T14:08:14.938Z,99769.72
2023-01-19T14:10:53.549Z,99779.84
2023-01-19T14:13:44.731Z,99772.16
2023-01-19T14:16:16.059Z,99772.94
2023-01-19T14:18:42.842Z,99782.34
2023-01-19T14:21:16.237Z,99788.34
2023-01-19T14:24:05.577Z,99792.59
2023-01-19T14:26:46.970Z,99798.59
2023-01-19T14:29:29.307Z,99804.59
2023-01-19T14:32:01.686Z,99795.22
2023-01-19T14:34:31.932Z,99798.66
2023-01-19T14:36:58.897Z,99795.22
2023-01-19T14:39:28.087Z,99802.09
2023-01-19T14:41:55.876Z,99804.66
2023-01-19T14:44:37.660Z,99806.56
2023-01-19T14:47:05.788Z,99811.81
2023-01-19T14:49:40.513Z,99807.56
2023-01-19T14:52:22.618Z,99811.06
2023-01-19T14:54:49.519Z,99804.34
2023-01-19T14:57:18.615Z,99813.78
2023-01-19T14:59:48.450Z,99817.22
2023-01-19T15:02:15.325Z,99818.09
2023-01-19T15:04:42.065Z,99819.88
2023-01-19T15:07:16.730Z,99823.25
2023-01-19T15:09:43.205Z,99830.13
2023-01-19T15:12:12.023Z,99825.88
2023-01-19T15:14:42.027Z,99834.53
2023-01-19T15:17:17.507Z,99831.06
2023-01-19T15:19:44.990Z,99839.72
2023-01-19T15:22:12.953Z,99834.59
2023-01-19T15:24:40.930Z,99837.16
2023-01-19T15:27:13.439Z,99848.28
2023-01-19T15:29:40.399Z,99844.84
2023-01-19T15:32:12.147Z,99847.34
2023-01-19T15:34:38.610Z,99853.28
2023-01-19T15:37:05.031Z,99854.09
2023-01-19T15:39:32.145Z,99856.56
2023-01-19T15:41:58.613Z,99862.44
2023-01-19T15:44:25.081Z,99859.00
2023-01-19T15:46:53.853Z,99863.97
2023-01-19T15:49:21.051Z,99865.56
2023-01-19T15:51:47.487Z,99872.63
2023-01-19T15:54:16.763Z,99865.66
2023-01-19T15:56:43.212Z,99863.78
2023-01-19T15:59:09.641Z,99873.16
2023-01-19T16:01:36.273Z,99884.16
2023-01-19T16:04:05.429Z,99879.03
2023-01-19T16:06:32.504Z,99885.84
2023-01-19T16:09:01.256Z,99883.34
2023-01-19T16:11:32.862Z,99897.06
2023-01-19T16:13:59.580Z,99898.81
2023-01-19T16:16:28.141Z,99895.38
2023-01-19T16:18:55.157Z,99899.69
2023-01-19T16:21:22.176Z,99906.59
2023-01-19T16:23:48.706Z,99913.31
2023-01-19T16:26:30.766Z,99916.69
2023-01-19T16:29:01.767Z,99927.75
2023-01-19T16:31:29.095Z,99919.97
2023-01-19T16:33:55.777Z,99927.66
2023-01-19T16:36:26.374Z,99933.53
2023-01-19T16:39:10.921Z,99934.25
2023-01-19T16:41:37.543Z,99933.31
2023-01-19T16:44:04.334Z,99940.88
2023-01-19T16:46:36.314Z,99938.31
2023-01-19T16:49:09.710Z,99943.38
2023-01-19T16:51:36.486Z,99936.25
2023-01-19T16:54:03.372Z,99941.22
2023-01-19T16:56:29.984Z,99936.09
2023-01-19T16:58:57.598Z,99941.84
2023-01-19T17:01:25.771Z,99947.75
2023-01-19T17:03:52.693Z,99944.25
2023-01-19T17:06:22.875Z,99935.59
2023-01-19T17:08:49.828Z,99944.25
2023-01-19T17:11:22.691Z,99945.94
2023-01-19T17:13:54.616Z,99948.50
2023-01-19T17:16:22.225Z,99948.50
2023-01-19T17:18:48.829Z,99943.13
2023-01-19T17:21:18.013Z,99949.94
2023-01-19T17:23:48.762Z,99949.88
2023-01-19T17:26:16.404Z,99954.00
2023-01-19T17:28:43.540Z,99958.97
2023-01-19T17:31:12.861Z,99953.59
2023-01-19T17:33:40.007Z,99962.00
2023-01-19T17:36:09.164Z,99966.25
2023-01-19T17:38:36.471Z,99968.81
2023-01-19T17:41:37.392Z,99977.53
2023-01-19T17:44:05.399Z,99974.97
2023-01-19T17:46:35.776Z,99972.25
2023-01-19T17:49:03.711Z,99977.31
2023-01-19T17:51:31.149Z,99975.69
2023-01-19T17:53:58.557Z,99979.16
2023-01-19T17:56:29.459Z,99978.19
2023-01-19T17:58:56.993Z,99978.97
2023-01-19T18:01:26.431Z,99983.22
2023-01-19T18:03:53.172Z,99980.66
2023-01-19T18:06:20.114Z,99984.91
2023-01-19T18:08:47.567Z,99983.13
2023-01-19T18:11:15.553Z,99988.16
2023-01-19T18:13:43.991Z,99993.19
2023-01-19T18:16:12.841Z,99991.34
2023-01-19T18:18:40.544Z,99997.19
2023-01-19T18:21:09.505Z,99992.78
2023-01-19T18:23:36.550Z,99992.78
2023-01-19T18:26:08.846Z,99987.59
2023-01-19T18:28:35.697Z,99991.03
2023-01-19T18:31:03.182Z,99996.84
2023-01-19T18:33:31.408Z,99991.56
2023-01-19T18:35:57.986Z,99999.31
2023-01-19T18:38:24.536Z,100007.88
2023-01-19T18:41:01.285Z,100003.47
2023-01-19T18:43:27.787Z,100009.50
2023-01-19T18:45:54.319Z,100012.84
2023-01-19T18:48:21.111Z,100005.81
2023-01-19T18:50:47.912Z,100007.47
2023-01-19T18:53:14.388Z,100011.72
2023-01-19T18:55:40.973Z,100013.31
2023-01-19T18:58:08.819Z,100014.88
2023-01-19T19:00:35.419Z,100010.56
2023-01-19T19:03:01.975Z,100020.81
2023-01-19T19:05:28.580Z,100019.84
2023-01-19T19:07:55.116Z,100028.31
2023-01-19T19:10:21.754Z,100020.56
2023-01-19T19:12:48.316Z,100023.03
2023-01-19T19:15:14.847Z,100033.09
2023-01-19T19:17:41.305Z,100038.22
2023-01-19T19:20:08.536Z,100038.03
2023-01-19T19:22:35.096Z,100043.88
2023-01-19T19:25:01.640Z,100047.13
2023-01-19T19:27:28.188Z,100048.81
2023-01-19T19:29:54.858Z,100046.97
2023-01-19T19:32:21.540Z,100056.25
2023-01-19T19:34:52.752Z,100052.00
2023-01-19T19:37:22.551Z,100068.25
2023-01-19T19:39:49.097Z,100070.63
2023-01-19T19:42:15.606Z,100070.44
2023-01-19T19:44:42.162Z,100075.53
2023-01-19T19:47:08.715Z,100078.81
2023-01-19T19:49:35.835Z,100082.19
2023-01-19T19:52:02.405Z,100077.94
2023-01-19T19:54:29.038Z,100080.66
2023-01-19T19:56:55.730Z,100090.13
2023-01-19T19:59:22.280Z,100091.78
2023-01-19T20:01:49.945Z,100089.22
2023-01-19T20:04:20.037Z,100093.47
2023-01-19T20:06:48.304Z,100098.59
2023-01-19T20:09:16.207Z,100089.16
2023-01-19T20:11:44.336Z,100097.78
2023-01-19T20:14:12.133Z,100093.47
2023-01-19T20:16:39.132Z,100097.69
2023-01-19T20:19:06.317Z,100100.19
2023-01-19T20:21:35.981Z,100103.34
2023-01-19T20:24:08.578Z,100102.38
2023-01-19T20:26:37.049Z,100104.06
2023-01-19T20:29:06.885Z,100102.22
2023-01-19T20:31:36.250Z,100108.88
2023-01-19T20:34:05.595Z,100118.16
2023-01-19T20:36:32.555Z,100124.88
2023-01-19T20:38:59.527Z,100126.28
2023-01-19T20:41:27.203Z,100122.75
2023-01-19T20:43:55.016Z,100126.19
2023-01-19T20:46:21.572Z,100130.44
2023-01-19T20:48:52.946Z,100138.09
2023-01-19T20:51:20.392Z,100143.00
2023-01-19T20:53:47.963Z,100143.72
2023-01-19T20:56:15.080Z,100138.31
2023-01-19T20:58:42.275Z,100141.69
2023-01-19T21:01:13.238Z,100141.69
2023-01-19T21:03:40.072Z,100144.94
2023-01-19T21:06:06.942Z,100146.50
2023-01-19T21:08:33.559Z,100153.19
2023-01-19T21:11:00.234Z,100154.00
2023-01-19T21:13:26.898Z,100155.66
2023-01-19T21:15:53.542Z,100158.84
2023-01-19T21:18:20.091Z,100169.84
2023-01-19T21:20:49.571Z,100171.53
2023-01-19T21:23:16.100Z,100173.28
2023-01-19T21:25:53.567Z,100186.88
2023-01-19T21:28:20.327Z,100181.59
2023-01-19T21:30:46.992Z,100182.25
2023-01-19T21:33:13.773Z,100184.00
2023-01-19T21:35:40.395Z,100189.72
2023-01-19T21:38:06.994Z,100193.88
2023-01-19T21:40:33.552Z,100192.91
2023-01-19T21:43:00.216Z,100201.38
2023-01-19T21:45:26.813Z,100203.13
2023-01-19T21:47:53.348Z,100202.34
2023-01-19T21:50:19.829Z,100204.09
2023-01-19T21:52:46.405Z,100211.69
2023-01-19T21:55:13.087Z,100215.03
2023-01-19T21:57:39.675Z,100214.16
2023-01-19T22:00:10.267Z,100221.03
2023-01-19T22:02:39.090Z,100220.84
2023-01-19T22:05:06.623Z,100230.84
2023-01-19T22:07:33.202Z,100227.50
2023-01-19T22:09:59.761Z,100233.13
2023-01-19T22:12:26.383Z,100234.00
2023-01-19T22:14:53.207Z,100241.59
2023-01-19T22:17:19.725Z,100237.34
2023-01-19T22:19:46.292Z,100245.81
2023-01-19T22:22:12.813Z,100244.06
2023-01-19T22:24:39.523Z,100249.16
2023-01-19T22:27:06.151Z,100248.97
2023-01-19T22:29:32.691Z,100257.22
2023-01-19T22:31:59.226Z,100257.22
2023-01-19T22:34:25.781Z,100268.22
2023-01-19T22:36:52.302Z,100266.47
2023-01-19T22:39:18.822Z,100269.00
2023-01-19T22:41:46.739Z,100278.25
2023-01-19T22:44:15.795Z,100276.41
2023-01-19T22:46:42.299Z,100275.41
2023-01-19T22:49:10.983Z,100275.19
2023-01-19T22:51:37.553Z,100287.88
2023-01-19T22:54:04.577Z,100280.91
2023-01-19T22:56:33.150Z,100289.44
2023-01-19T22:59:00.108Z,100290.25
2023-01-19T23:01:33.655Z,100288.66
2023-01-19T23:04:01.726Z,100290.34
2023-01-19T23:06:30.517Z,100298.69
2023-01-19T23:09:02.644Z,100297.91
2023-01-19T23:11:37.337Z,100290.94
2023-01-19T23:14:05.079Z,100288.38
2023-01-19T23:16:31.591Z,100301.25
2023-01-19T23:18:58.537Z,100299.47
2023-01-19T23:21:27.677Z,100300.28
2023-01-19T23:23:55.662Z,100302.03
2023-01-19T23:26:23.517Z,100305.38
2023-01-19T23:29:02.495Z,100304.41
2023-01-19T23:31:31.189Z,100308.53
2023-01-19T23:34:00.183Z,100308.72
2023-01-19T23:36:28.143Z,100308.72
2023-01-19T23:38:59.884Z,100316.28
2023-01-19T23:41:28.866Z,100313.63
2023-01-19T23:43:55.361Z,100322.28
2023-01-19T23:46:21.932Z,100328.97
2023-01-19T23:48:48.841Z,100322.09
2023-01-19T23:51:21.060Z,100319.31
2023-01-19T23:53:48.031Z,100330.31
2023-01-19T23:56:26.201Z,100326.78
2023-01-19T23:58:54.847Z,100325.00
